sensor_id;sensor_type;location;lat;lon;timestamp;P1;durP1;ratioP1;P2;durP2;ratioP2
1178;SDS011;578;48.408;10.004;2022-10-29T00:00:55;16.63;;;10.37;;
1178;SDS011;578;48.408;10.004;2022-10-29T00:03:24;14.60;;;10.70;;
1178;SDS011;578;48.408;10.004;2022-10-29T00:05:55;15.37;;;10.50;;
1178;SDS011;578;48.408;10.004;2022-10-29T00:08:22;13.67;;;10.03;;
1178;SDS011;578;48.408;10.004;2022-10-29T00:10:49;16.17;;;10.63;;
1178;SDS011;578;48.408;10.004;2022-10-29T00:13:16;13.43;;;9.33;;
1178;SDS011;578;48.408;10.004;2022-10-29T00:15:43;15.03;;;10.43;;
1178;SDS011;578;48.408;10.004;2022-10-29T00:18:09;12.60;;;9.93;;
1178;SDS011;578;48.408;10.004;2022-10-29T00:20:37;12.40;;;9.97;;
1178;SDS011;578;48.408;10.004;2022-10-29T00:23:04;16.40;;;10.57;;
1178;SDS011;578;48.408;10.004;2022-10-29T00:25:31;17.27;;;10.80;;
1178;SDS011;578;48.408;10.004;2022-10-29T00:27:57;12.57;;;9.80;;
1178;SDS011;578;48.408;10.004;2022-10-29T00:30:24;16.63;;;11.53;;
1178;SDS011;578;48.408;10.004;2022-10-29T00:32:51;16.47;;;10.67;;
1178;SDS011;578;48.408;10.004;2022-10-29T00:35:18;17.77;;;11.40;;
1178;SDS011;578;48.408;10.004;2022-10-29T00:37:46;16.43;;;11.53;;
1178;SDS011;578;48.408;10.004;2022-10-29T00:40:12;15.43;;;10.50;;
1178;SDS011;578;48.408;10.004;2022-10-29T00:42:39;14.03;;;10.77;;
1178;SDS011;578;48.408;10.004;2022-10-29T00:45:07;11.83;;;10.23;;
1178;SDS011;578;48.408;10.004;2022-10-29T00:47:47;13.43;;;10.50;;
1178;SDS011;578;48.408;10.004;2022-10-29T00:50:17;16.67;;;11.50;;
1178;SDS011;578;48.408;10.004;2022-10-29T00:52:48;11.73;;;9.80;;
1178;SDS011;578;48.408;10.004;2022-10-29T00:55:15;14.83;;;9.93;;
1178;SDS011;578;48.408;10.004;2022-10-29T00:57:45;14.87;;;10.43;;
1178;SDS011;578;48.408;10.004;2022-10-29T01:00:15;16.30;;;10.30;;
1178;SDS011;578;48.408;10.004;2022-10-29T01:02:43;17.40;;;10.80;;
1178;SDS011;578;48.408;10.004;2022-10-29T01:05:10;11.47;;;9.77;;
1178;SDS011;578;48.408;10.004;2022-10-29T01:07:39;14.50;;;9.50;;
1178;SDS011;578;48.408;10.004;2022-10-29T01:10:08;16.93;;;11.00;;
1178;SDS011;578;48.408;10.004;2022-10-29T01:15:28;14.70;;;9.50;;
1178;SDS011;578;48.408;10.004;2022-10-29T01:18:05;11.57;;;10.37;;
1178;SDS011;578;48.408;10.004;2022-10-29T01:26:36;13.90;;;10.43;;
1178;SDS011;578;48.408;10.004;2022-10-29T01:29:23;13.40;;;10.57;;
1178;SDS011;578;48.408;10.004;2022-10-29T01:32:03;14.27;;;11.93;;
1178;SDS011;578;48.408;10.004;2022-10-29T01:34:36;18.90;;;11.73;;
1178;SDS011;578;48.408;10.004;2022-10-29T01:37:09;15.27;;;12.00;;
1178;SDS011;578;48.408;10.004;2022-10-29T01:39:43;14.30;;;10.27;;
1178;SDS011;578;48.408;10.004;2022-10-29T01:42:20;14.37;;;10.50;;
1178;SDS011;578;48.408;10.004;2022-10-29T01:44:53;13.10;;;11.00;;
1178;SDS011;578;48.408;10.004;2022-10-29T01:47:30;20.27;;;12.07;;
1178;SDS011;578;48.408;10.004;2022-10-29T01:50:02;17.80;;;11.97;;
1178;SDS011;578;48.408;10.004;2022-10-29T01:52:33;13.10;;;11.10;;
1178;SDS011;578;48.408;10.004;2022-10-29T01:55:03;19.70;;;11.57;;
1178;SDS011;578;48.408;10.004;2022-10-29T01:57:32;16.73;;;11.43;;
1178;SDS011;578;48.408;10.004;2022-10-29T02:00:00;14.50;;;10.33;;
1178;SDS011;578;48.408;10.004;2022-10-29T02:02:37;17.50;;;11.13;;
1178;SDS011;578;48.408;10.004;2022-10-29T02:05:14;15.40;;;10.73;;
1178;SDS011;578;48.408;10.004;2022-10-29T02:07:53;16.87;;;11.10;;
1178;SDS011;578;48.408;10.004;2022-10-29T02:10:25;18.97;;;10.40;;
1178;SDS011;578;48.408;10.004;2022-10-29T02:12:58;13.70;;;10.57;;
1178;SDS011;578;48.408;10.004;2022-10-29T02:15:26;12.00;;;9.77;;
1178;SDS011;578;48.408;10.004;2022-10-29T02:17:59;18.00;;;12.00;;
1178;SDS011;578;48.408;10.004;2022-10-29T02:20:27;16.57;;;11.53;;
1178;SDS011;578;48.408;10.004;2022-10-29T02:22:54;16.73;;;11.33;;
1178;SDS011;578;48.408;10.004;2022-10-29T02:25:21;19.47;;;11.93;;
1178;SDS011;578;48.408;10.004;2022-10-29T02:27:48;18.97;;;12.00;;
1178;SDS011;578;48.408;10.004;2022-10-29T02:30:15;13.63;;;11.13;;
1178;SDS011;578;48.408;10.004;2022-10-29T02:32:42;15.93;;;12.03;;
1178;SDS011;578;48.408;10.004;2022-10-29T02:35:10;23.37;;;12.13;;
1178;SDS011;578;48.408;10.004;2022-10-29T02:37:37;12.93;;;10.73;;
1178;SDS011;578;48.408;10.004;2022-10-29T02:40:04;17.83;;;12.37;;
1178;SDS011;578;48.408;10.004;2022-10-29T02:42:32;15.80;;;12.37;;
1178;SDS011;578;48.408;10.004;2022-10-29T02:44:58;20.87;;;11.80;;
1178;SDS011;578;48.408;10.004;2022-10-29T02:47:25;18.47;;;12.20;;
1178;SDS011;578;48.408;10.004;2022-10-29T02:49:52;17.17;;;12.00;;
1178;SDS011;578;48.408;10.004;2022-10-29T02:52:20;21.73;;;11.40;;
1178;SDS011;578;48.408;10.004;2022-10-29T02:54:47;17.20;;;12.23;;
1178;SDS011;578;48.408;10.004;2022-10-29T02:57:14;16.00;;;11.17;;
1178;SDS011;578;48.408;10.004;2022-10-29T02:59:40;15.20;;;11.37;;
1178;SDS011;578;48.408;10.004;2022-10-29T03:02:07;13.73;;;11.60;;
1178;SDS011;578;48.408;10.004;2022-10-29T03:04:34;14.30;;;11.13;;
1178;SDS011;578;48.408;10.004;2022-10-29T03:07:03;23.00;;;12.37;;
1178;SDS011;578;48.408;10.004;2022-10-29T03:09:31;15.20;;;12.13;;
1178;SDS011;578;48.408;10.004;2022-10-29T03:11:57;19.40;;;12.80;;
1178;SDS011;578;48.408;10.004;2022-10-29T03:14:24;17.53;;;10.53;;
1178;SDS011;578;48.408;10.004;2022-10-29T03:16:51;15.97;;;11.77;;
1178;SDS011;578;48.408;10.004;2022-10-29T03:19:18;21.90;;;10.93;;
1178;SDS011;578;48.408;10.004;2022-10-29T03:21:44;18.60;;;12.57;;
1178;SDS011;578;48.408;10.004;2022-10-29T03:24:11;19.10;;;11.77;;
1178;SDS011;578;48.408;10.004;2022-10-29T03:26:39;16.30;;;10.33;;
1178;SDS011;578;48.408;10.004;2022-10-29T03:29:06;21.97;;;12.13;;
1178;SDS011;578;48.408;10.004;2022-10-29T03:31:32;19.43;;;11.90;;
1178;SDS011;578;48.408;10.004;2022-10-29T03:33:59;14.90;;;9.87;;
1178;SDS011;578;48.408;10.004;2022-10-29T03:36:26;20.47;;;13.40;;
1178;SDS011;578;48.408;10.004;2022-10-29T03:38:53;16.63;;;11.00;;
1178;SDS011;578;48.408;10.004;2022-10-29T03:41:19;17.47;;;12.30;;
1178;SDS011;578;48.408;10.004;2022-10-29T03:43:48;15.70;;;10.87;;
1178;SDS011;578;48.408;10.004;2022-10-29T03:46:14;15.80;;;11.57;;
1178;SDS011;578;48.408;10.004;2022-10-29T03:48:41;22.97;;;12.50;;
1178;SDS011;578;48.408;10.004;2022-10-29T03:51:08;13.43;;;10.73;;
1178;SDS011;578;48.408;10.004;2022-10-29T03:53:36;23.40;;;11.43;;
1178;SDS011;578;48.408;10.004;2022-10-29T03:56:03;16.00;;;11.17;;
1178;SDS011;578;48.408;10.004;2022-10-29T03:58:30;17.17;;;10.83;;
1178;SDS011;578;48.408;10.004;2022-10-29T04:00:59;18.23;;;11.00;;
1178;SDS011;578;48.408;10.004;2022-10-29T04:03:27;15.00;;;11.07;;
1178;SDS011;578;48.408;10.004;2022-10-29T04:05:55;20.50;;;11.10;;
1178;SDS011;578;48.408;10.004;2022-10-29T04:08:23;15.57;;;11.40;;
1178;SDS011;578;48.408;10.004;2022-10-29T04:10:50;13.27;;;10.17;;
1178;SDS011;578;48.408;10.004;2022-10-29T04:13:17;12.87;;;10.70;;
1178;SDS011;578;48.408;10.004;2022-10-29T04:15:45;23.13;;;11.97;;
1178;SDS011;578;48.408;10.004;2022-10-29T04:18:13;21.50;;;11.27;;
1178;SDS011;578;48.408;10.004;2022-10-29T04:20:40;16.73;;;12.07;;
1178;SDS011;578;48.408;10.004;2022-10-29T04:23:06;15.30;;;10.33;;
1178;SDS011;578;48.408;10.004;2022-10-29T04:25:33;15.63;;;10.60;;
1178;SDS011;578;48.408;10.004;2022-10-29T04:28:00;13.53;;;10.10;;
1178;SDS011;578;48.408;10.004;2022-10-29T04:30:27;16.43;;;12.30;;
1178;SDS011;578;48.408;10.004;2022-10-29T04:32:54;14.33;;;10.80;;
1178;SDS011;578;48.408;10.004;2022-10-29T04:35:24;13.30;;;10.20;;
1178;SDS011;578;48.408;10.004;2022-10-29T04:37:51;12.67;;;9.50;;
1178;SDS011;578;48.408;10.004;2022-10-29T04:40:19;12.67;;;10.27;;
1178;SDS011;578;48.408;10.004;2022-10-29T04:42:47;13.53;;;9.30;;
1178;SDS011;578;48.408;10.004;2022-10-29T04:45:14;17.40;;;10.60;;
1178;SDS011;578;48.408;10.004;2022-10-29T04:47:41;15.03;;;11.40;;
1178;SDS011;578;48.408;10.004;2022-10-29T04:50:08;15.57;;;10.20;;
1178;SDS011;578;48.408;10.004;2022-10-29T04:52:36;12.70;;;9.90;;
1178;SDS011;578;48.408;10.004;2022-10-29T04:55:03;10.73;;;9.63;;
1178;SDS011;578;48.408;10.004;2022-10-29T04:57:30;12.90;;;9.80;;
1178;SDS011;578;48.408;10.004;2022-10-29T04:59:56;12.60;;;10.60;;
1178;SDS011;578;48.408;10.004;2022-10-29T05:02:23;19.97;;;11.97;;
1178;SDS011;578;48.408;10.004;2022-10-29T05:04:50;16.23;;;10.50;;
1178;SDS011;578;48.408;10.004;2022-10-29T05:07:16;14.17;;;9.97;;
1178;SDS011;578;48.408;10.004;2022-10-29T05:09:45;13.40;;;10.47;;
1178;SDS011;578;48.408;10.004;2022-10-29T05:12:11;12.77;;;10.50;;
1178;SDS011;578;48.408;10.004;2022-10-29T05:14:38;14.00;;;10.20;;
1178;SDS011;578;48.408;10.004;2022-10-29T05:17:05;15.77;;;9.87;;
1178;SDS011;578;48.408;10.004;2022-10-29T05:19:31;17.77;;;10.97;;
1178;SDS011;578;48.408;10.004;2022-10-29T05:21:58;14.90;;;9.97;;
1178;SDS011;578;48.408;10.004;2022-10-29T05:24:25;11.60;;;10.40;;
1178;SDS011;578;48.408;10.004;2022-10-29T05:26:53;17.83;;;10.50;;
1178;SDS011;578;48.408;10.004;2022-10-29T05:29:19;11.17;;;9.43;;
1178;SDS011;578;48.408;10.004;2022-10-29T05:31:46;13.00;;;9.33;;
1178;SDS011;578;48.408;10.004;2022-10-29T05:34:13;15.87;;;9.80;;
1178;SDS011;578;48.408;10.004;2022-10-29T05:36:40;28.43;;;10.73;;
1178;SDS011;578;48.408;10.004;2022-10-29T05:39:06;12.87;;;9.87;;
1178;SDS011;578;48.408;10.004;2022-10-29T05:41:33;15.13;;;10.10;;
1178;SDS011;578;48.408;10.004;2022-10-29T05:44:01;15.03;;;10.87;;
1178;SDS011;578;48.408;10.004;2022-10-29T05:46:28;12.97;;;11.03;;
1178;SDS011;578;48.408;10.004;2022-10-29T05:48:55;14.13;;;12.00;;
1178;SDS011;578;48.408;10.004;2022-10-29T05:51:21;15.03;;;11.63;;
1178;SDS011;578;48.408;10.004;2022-10-29T05:53:48;15.80;;;10.33;;
1178;SDS011;578;48.408;10.004;2022-10-29T05:56:15;11.10;;;9.43;;
1178;SDS011;578;48.408;10.004;2022-10-29T05:58:42;18.80;;;10.87;;
1178;SDS011;578;48.408;10.004;2022-10-29T06:01:10;12.10;;;10.87;;
1178;SDS011;578;48.408;10.004;2022-10-29T06:03:37;14.73;;;9.90;;
1178;SDS011;578;48.408;10.004;2022-10-29T06:06:04;18.10;;;10.40;;
1178;SDS011;578;48.408;10.004;2022-10-29T06:08:30;20.03;;;9.80;;
1178;SDS011;578;48.408;10.004;2022-10-29T06:10:59;14.83;;;8.90;;
1178;SDS011;578;48.408;10.004;2022-10-29T06:13:27;11.73;;;9.60;;
1178;SDS011;578;48.408;10.004;2022-10-29T06:15:55;14.63;;;9.40;;
1178;SDS011;578;48.408;10.004;2022-10-29T06:18:25;12.97;;;10.17;;
1178;SDS011;578;48.408;10.004;2022-10-29T06:20:52;16.17;;;10.17;;
1178;SDS011;578;48.408;10.004;2022-10-29T06:23:19;13.50;;;9.67;;
1178;SDS011;578;48.408;10.004;2022-10-29T06:25:46;12.00;;;9.90;;
1178;SDS011;578;48.408;10.004;2022-10-29T06:28:12;12.17;;;9.50;;
1178;SDS011;578;48.408;10.004;2022-10-29T06:30:40;14.30;;;10.00;;
1178;SDS011;578;48.408;10.004;2022-10-29T06:33:12;10.43;;;9.27;;
1178;SDS011;578;48.408;10.004;2022-10-29T06:35:40;15.50;;;9.90;;
1178;SDS011;578;48.408;10.004;2022-10-29T06:38:06;16.30;;;9.57;;
1178;SDS011;578;48.408;10.004;2022-10-29T06:40:33;13.30;;;10.53;;
1178;SDS011;578;48.408;10.004;2022-10-29T06:43:00;14.33;;;11.80;;
1178;SDS011;578;48.408;10.004;2022-10-29T06:45:28;18.47;;;12.43;;
1178;SDS011;578;48.408;10.004;2022-10-29T06:47:55;15.70;;;10.53;;
1178;SDS011;578;48.408;10.004;2022-10-29T06:50:22;13.83;;;11.30;;
1178;SDS011;578;48.408;10.004;2022-10-29T06:52:55;14.50;;;12.43;;
1178;SDS011;578;48.408;10.004;2022-10-29T06:55:22;12.70;;;9.90;;
1178;SDS011;578;48.408;10.004;2022-10-29T06:57:54;12.93;;;10.17;;
1178;SDS011;578;48.408;10.004;2022-10-29T07:00:22;12.57;;;10.03;;
1178;SDS011;578;48.408;10.004;2022-10-29T07:02:49;17.63;;;10.00;;
1178;SDS011;578;48.408;10.004;2022-10-29T07:05:16;21.30;;;10.10;;
1178;SDS011;578;48.408;10.004;2022-10-29T07:07:42;17.90;;;10.53;;
1178;SDS011;578;48.408;10.004;2022-10-29T07:10:11;15.30;;;10.23;;
1178;SDS011;578;48.408;10.004;2022-10-29T07:12:38;12.70;;;9.23;;
1178;SDS011;578;48.408;10.004;2022-10-29T07:15:05;15.17;;;11.37;;
1178;SDS011;578;48.408;10.004;2022-10-29T07:17:32;13.70;;;9.67;;
1178;SDS011;578;48.408;10.004;2022-10-29T07:19:59;18.73;;;11.73;;
1178;SDS011;578;48.408;10.004;2022-10-29T07:22:26;14.93;;;11.40;;
1178;SDS011;578;48.408;10.004;2022-10-29T07:24:53;13.30;;;10.90;;
1178;SDS011;578;48.408;10.004;2022-10-29T07:27:21;15.80;;;11.10;;
1178;SDS011;578;48.408;10.004;2022-10-29T07:29:48;15.40;;;11.50;;
1178;SDS011;578;48.408;10.004;2022-10-29T07:32:14;15.40;;;10.93;;
1178;SDS011;578;48.408;10.004;2022-10-29T07:34:41;15.30;;;12.07;;
1178;SDS011;578;48.408;10.004;2022-10-29T07:37:08;22.13;;;12.73;;
1178;SDS011;578;48.408;10.004;2022-10-29T07:39:34;15.93;;;11.33;;
1178;SDS011;578;48.408;10.004;2022-10-29T07:42:01;12.37;;;11.13;;
1178;SDS011;578;48.408;10.004;2022-10-29T07:44:29;20.50;;;13.07;;
1178;SDS011;578;48.408;10.004;2022-10-29T07:46:56;18.93;;;11.80;;
1178;SDS011;578;48.408;10.004;2022-10-29T07:49:25;20.37;;;11.57;;
1178;SDS011;578;48.408;10.004;2022-10-29T07:51:52;12.87;;;10.53;;
1178;SDS011;578;48.408;10.004;2022-10-29T07:54:18;11.80;;;9.17;;
1178;SDS011;578;48.408;10.004;2022-10-29T07:56:45;15.13;;;8.53;;
1178;SDS011;578;48.408;10.004;2022-10-29T07:59:12;10.30;;;7.80;;
1178;SDS011;578;48.408;10.004;2022-10-29T08:01:41;10.30;;;8.30;;
1178;SDS011;578;48.408;10.004;2022-10-29T08:04:07;8.93;;;7.87;;
1178;SDS011;578;48.408;10.004;2022-10-29T08:06:34;11.50;;;6.80;;
1178;SDS011;578;48.408;10.004;2022-10-29T08:09:01;11.97;;;7.80;;
1178;SDS011;578;48.408;10.004;2022-10-29T08:11:29;11.90;;;7.47;;
1178;SDS011;578;48.408;10.004;2022-10-29T08:13:56;9.17;;;6.50;;
1178;SDS011;578;48.408;10.004;2022-10-29T08:16:23;8.20;;;6.70;;
1178;SDS011;578;48.408;10.004;2022-10-29T08:18:51;10.00;;;7.17;;
1178;SDS011;578;48.408;10.004;2022-10-29T08:21:18;7.57;;;6.10;;
1178;SDS011;578;48.408;10.004;2022-10-29T08:23:44;9.10;;;7.10;;
1178;SDS011;578;48.408;10.004;2022-10-29T08:26:11;13.80;;;6.50;;
1178;SDS011;578;48.408;10.004;2022-10-29T08:28:38;11.17;;;6.13;;
1178;SDS011;578;48.408;10.004;2022-10-29T08:31:06;8.03;;;6.40;;
1178;SDS011;578;48.408;10.004;2022-10-29T08:33:33;11.67;;;6.77;;
1178;SDS011;578;48.408;10.004;2022-10-29T08:36:02;8.27;;;6.33;;
1178;SDS011;578;48.408;10.004;2022-10-29T08:38:29;8.07;;;6.03;;
1178;SDS011;578;48.408;10.004;2022-10-29T08:41:00;10.23;;;6.43;;
1178;SDS011;578;48.408;10.004;2022-10-29T08:43:46;8.50;;;6.63;;
1178;SDS011;578;48.408;10.004;2022-10-29T08:46:35;7.30;;;5.93;;
1178;SDS011;578;48.408;10.004;2022-10-29T08:49:09;12.37;;;6.40;;
1178;SDS011;578;48.408;10.004;2022-10-29T08:51:42;8.10;;;6.87;;
1178;SDS011;578;48.408;10.004;2022-10-29T08:54:13;9.43;;;6.10;;
1178;SDS011;578;48.408;10.004;2022-10-29T08:56:42;9.80;;;5.37;;
1178;SDS011;578;48.408;10.004;2022-10-29T08:59:12;10.07;;;6.17;;
1178;SDS011;578;48.408;10.004;2022-10-29T09:01:41;10.00;;;6.00;;
1178;SDS011;578;48.408;10.004;2022-10-29T09:04:12;10.57;;;5.97;;
1178;SDS011;578;48.408;10.004;2022-10-29T09:06:50;8.87;;;6.00;;
1178;SDS011;578;48.408;10.004;2022-10-29T09:09:26;10.80;;;6.00;;
1178;SDS011;578;48.408;10.004;2022-10-29T09:12:02;10.43;;;6.37;;
1178;SDS011;578;48.408;10.004;2022-10-29T09:14:47;9.00;;;6.00;;
1178;SDS011;578;48.408;10.004;2022-10-29T09:17:34;7.10;;;6.10;;
1178;SDS011;578;48.408;10.004;2022-10-29T09:20:15;9.90;;;5.77;;
1178;SDS011;578;48.408;10.004;2022-10-29T09:22:50;7.93;;;6.73;;
1178;SDS011;578;48.408;10.004;2022-10-29T09:25:25;8.60;;;5.87;;
1178;SDS011;578;48.408;10.004;2022-10-29T09:27:59;8.53;;;5.97;;
1178;SDS011;578;48.408;10.004;2022-10-29T09:30:39;11.07;;;6.00;;
1178;SDS011;578;48.408;10.004;2022-10-29T09:33:13;7.20;;;5.53;;
1178;SDS011;578;48.408;10.004;2022-10-29T09:35:42;9.47;;;5.77;;
1178;SDS011;578;48.408;10.004;2022-10-29T09:38:15;8.63;;;5.40;;
1178;SDS011;578;48.408;10.004;2022-10-29T09:40:44;7.10;;;5.40;;
1178;SDS011;578;48.408;10.004;2022-10-29T09:43:18;6.83;;;4.97;;
1178;SDS011;578;48.408;10.004;2022-10-29T09:45:55;8.57;;;5.90;;
1178;SDS011;578;48.408;10.004;2022-10-29T09:48:29;10.27;;;5.53;;
1178;SDS011;578;48.408;10.004;2022-10-29T09:51:05;9.23;;;5.30;;
1178;SDS011;578;48.408;10.004;2022-10-29T09:53:43;7.27;;;5.73;;
1178;SDS011;578;48.408;10.004;2022-10-29T09:56:10;7.07;;;4.73;;
1178;SDS011;578;48.408;10.004;2022-10-29T09:58:37;7.10;;;4.43;;
1178;SDS011;578;48.408;10.004;2022-10-29T10:01:08;7.80;;;4.70;;
1178;SDS011;578;48.408;10.004;2022-10-29T10:03:37;8.23;;;4.73;;
1178;SDS011;578;48.408;10.004;2022-10-29T10:06:10;5.83;;;4.27;;
1178;SDS011;578;48.408;10.004;2022-10-29T10:11:30;5.67;;;3.80;;
1178;SDS011;578;48.408;10.004;2022-10-29T10:14:03;10.83;;;5.03;;
1178;SDS011;578;48.408;10.004;2022-10-29T10:16:37;5.63;;;3.80;;
1178;SDS011;578;48.408;10.004;2022-10-29T10:19:23;7.10;;;4.00;;
1178;SDS011;578;48.408;10.004;2022-10-29T10:21:55;11.07;;;4.00;;
1178;SDS011;578;48.408;10.004;2022-10-29T10:24:31;6.73;;;5.03;;
1178;SDS011;578;48.408;10.004;2022-10-29T10:26:59;8.87;;;3.93;;
1178;SDS011;578;48.408;10.004;2022-10-29T10:29:26;6.77;;;3.50;;
1178;SDS011;578;48.408;10.004;2022-10-29T10:34:36;7.33;;;4.07;;
1178;SDS011;578;48.408;10.004;2022-10-29T10:37:06;8.13;;;4.30;;
1178;SDS011;578;48.408;10.004;2022-10-29T10:39:42;9.00;;;4.30;;
1178;SDS011;578;48.408;10.004;2022-10-29T10:42:14;5.23;;;3.93;;
1178;SDS011;578;48.408;10.004;2022-10-29T10:44:44;7.93;;;4.30;;
1178;SDS011;578;48.408;10.004;2022-10-29T10:47:13;8.17;;;3.63;;
1178;SDS011;578;48.408;10.004;2022-10-29T10:49:43;7.10;;;3.57;;
1178;SDS011;578;48.408;10.004;2022-10-29T10:52:13;6.33;;;4.47;;
1178;SDS011;578;48.408;10.004;2022-10-29T10:54:44;4.13;;;3.70;;
1178;SDS011;578;48.408;10.004;2022-10-29T10:57:20;8.23;;;4.93;;
1178;SDS011;578;48.408;10.004;2022-10-29T10:59:50;5.43;;;4.47;;
1178;SDS011;578;48.408;10.004;2022-10-29T11:02:24;5.80;;;3.43;;
1178;SDS011;578;48.408;10.004;2022-10-29T11:04:59;5.63;;;4.13;;
1178;SDS011;578;48.408;10.004;2022-10-29T11:07:34;4.63;;;4.13;;
1178;SDS011;578;48.408;10.004;2022-10-29T11:10:09;4.43;;;3.70;;
1178;SDS011;578;48.408;10.004;2022-10-29T11:12:39;4.97;;;3.40;;
1178;SDS011;578;48.408;10.004;2022-10-29T11:15:11;6.53;;;3.60;;
1178;SDS011;578;48.408;10.004;2022-10-29T11:17:44;6.20;;;4.20;;
1178;SDS011;578;48.408;10.004;2022-10-29T11:20:16;10.27;;;4.20;;
1178;SDS011;578;48.408;10.004;2022-10-29T11:22:49;7.80;;;4.20;;
1178;SDS011;578;48.408;10.004;2022-10-29T11:25:25;5.07;;;4.03;;
1178;SDS011;578;48.408;10.004;2022-10-29T11:27:58;7.20;;;4.57;;
1178;SDS011;578;48.408;10.004;2022-10-29T11:30:35;8.53;;;4.10;;
1178;SDS011;578;48.408;10.004;2022-10-29T11:33:10;7.30;;;3.70;;
1178;SDS011;578;48.408;10.004;2022-10-29T11:35:47;9.37;;;4.10;;
1178;SDS011;578;48.408;10.004;2022-10-29T11:38:17;8.07;;;4.30;;
1178;SDS011;578;48.408;10.004;2022-10-29T11:40:51;6.20;;;3.90;;
1178;SDS011;578;48.408;10.004;2022-10-29T11:43:22;6.30;;;3.80;;
1178;SDS011;578;48.408;10.004;2022-10-29T11:45:55;5.40;;;4.20;;
1178;SDS011;578;48.408;10.004;2022-10-29T11:48:27;10.40;;;4.90;;
1178;SDS011;578;48.408;10.004;2022-10-29T11:51:10;10.13;;;4.40;;
1178;SDS011;578;48.408;10.004;2022-10-29T11:53:58;6.73;;;4.17;;
1178;SDS011;578;48.408;10.004;2022-10-29T11:56:37;5.47;;;3.80;;
1178;SDS011;578;48.408;10.004;2022-10-29T11:59:12;11.63;;;3.57;;
1178;SDS011;578;48.408;10.004;2022-10-29T12:01:50;7.03;;;4.13;;
1178;SDS011;578;48.408;10.004;2022-10-29T12:04:23;9.00;;;4.70;;
1178;SDS011;578;48.408;10.004;2022-10-29T12:06:58;7.63;;;4.43;;
1178;SDS011;578;48.408;10.004;2022-10-29T12:09:56;6.00;;;4.10;;
1178;SDS011;578;48.408;10.004;2022-10-29T12:12:37;6.80;;;4.17;;
1178;SDS011;578;48.408;10.004;2022-10-29T12:15:12;9.67;;;4.33;;
1178;SDS011;578;48.408;10.004;2022-10-29T12:17:48;9.70;;;4.40;;
1178;SDS011;578;48.408;10.004;2022-10-29T12:20:25;9.50;;;5.33;;
1178;SDS011;578;48.408;10.004;2022-10-29T12:22:59;7.70;;;4.40;;
1178;SDS011;578;48.408;10.004;2022-10-29T12:25:33;7.87;;;4.27;;
1178;SDS011;578;48.408;10.004;2022-10-29T12:28:11;8.93;;;4.03;;
1178;SDS011;578;48.408;10.004;2022-10-29T12:30:45;8.47;;;4.03;;
1178;SDS011;578;48.408;10.004;2022-10-29T12:33:20;7.50;;;4.20;;
1178;SDS011;578;48.408;10.004;2022-10-29T12:35:53;6.63;;;4.93;;
1178;SDS011;578;48.408;10.004;2022-10-29T12:38:31;7.90;;;4.17;;
1178;SDS011;578;48.408;10.004;2022-10-29T12:41:01;7.60;;;3.70;;
1178;SDS011;578;48.408;10.004;2022-10-29T12:43:33;7.37;;;3.77;;
1178;SDS011;578;48.408;10.004;2022-10-29T12:46:02;10.03;;;5.73;;
1178;SDS011;578;48.408;10.004;2022-10-29T12:48:41;7.07;;;4.50;;
1178;SDS011;578;48.408;10.004;2022-10-29T12:51:16;5.37;;;3.87;;
1178;SDS011;578;48.408;10.004;2022-10-29T12:53:55;11.43;;;4.80;;
1178;SDS011;578;48.408;10.004;2022-10-29T12:56:37;10.03;;;4.47;;
1178;SDS011;578;48.408;10.004;2022-10-29T13:11:00;6.50;;;4.20;;
1178;SDS011;578;48.408;10.004;2022-10-29T13:16:18;9.23;;;4.00;;
1178;SDS011;578;48.408;10.004;2022-10-29T13:18:54;7.50;;;4.33;;
1178;SDS011;578;48.408;10.004;2022-10-29T13:24:26;8.00;;;4.30;;
1178;SDS011;578;48.408;10.004;2022-10-29T13:26:58;10.30;;;5.47;;
1178;SDS011;578;48.408;10.004;2022-10-29T13:29:43;4.93;;;3.80;;
1178;SDS011;578;48.408;10.004;2022-10-29T13:32:31;6.70;;;3.33;;
1178;SDS011;578;48.408;10.004;2022-10-29T13:35:01;8.20;;;4.20;;
1178;SDS011;578;48.408;10.004;2022-10-29T13:43:36;5.67;;;3.23;;
1178;SDS011;578;48.408;10.004;2022-10-29T13:46:12;10.10;;;3.73;;
1178;SDS011;578;48.408;10.004;2022-10-29T13:48:52;7.10;;;4.30;;
1178;SDS011;578;48.408;10.004;2022-10-29T13:51:23;6.53;;;3.30;;
1178;SDS011;578;48.408;10.004;2022-10-29T13:53:57;7.40;;;4.03;;
1178;SDS011;578;48.408;10.004;2022-10-29T13:56:29;3.93;;;3.10;;
1178;SDS011;578;48.408;10.004;2022-10-29T13:59:00;4.97;;;3.10;;
1178;SDS011;578;48.408;10.004;2022-10-29T14:01:30;8.70;;;4.13;;
1178;SDS011;578;48.408;10.004;2022-10-29T14:04:00;10.57;;;5.20;;
1178;SDS011;578;48.408;10.004;2022-10-29T14:06:32;10.10;;;3.30;;
1178;SDS011;578;48.408;10.004;2022-10-29T14:09:05;9.17;;;3.97;;
1178;SDS011;578;48.408;10.004;2022-10-29T14:11:38;5.23;;;3.23;;
1178;SDS011;578;48.408;10.004;2022-10-29T14:14:14;9.97;;;3.40;;
1178;SDS011;578;48.408;10.004;2022-10-29T14:16:48;4.30;;;3.03;;
1178;SDS011;578;48.408;10.004;2022-10-29T14:19:18;8.20;;;3.33;;
1178;SDS011;578;48.408;10.004;2022-10-29T14:21:47;12.00;;;3.50;;
1178;SDS011;578;48.408;10.004;2022-10-29T14:24:15;6.37;;;3.10;;
1178;SDS011;578;48.408;10.004;2022-10-29T14:26:42;8.27;;;3.60;;
1178;SDS011;578;48.408;10.004;2022-10-29T14:29:13;4.80;;;3.40;;
1178;SDS011;578;48.408;10.004;2022-10-29T14:31:43;4.53;;;2.97;;
1178;SDS011;578;48.408;10.004;2022-10-29T14:34:20;8.80;;;3.53;;
1178;SDS011;578;48.408;10.004;2022-10-29T14:36:49;5.50;;;2.57;;
1178;SDS011;578;48.408;10.004;2022-10-29T14:39:19;8.33;;;4.10;;
1178;SDS011;578;48.408;10.004;2022-10-29T14:41:51;6.53;;;3.60;;
1178;SDS011;578;48.408;10.004;2022-10-29T14:44:22;6.77;;;3.70;;
1178;SDS011;578;48.408;10.004;2022-10-29T14:46:53;7.50;;;4.10;;
1178;SDS011;578;48.408;10.004;2022-10-29T14:49:26;5.90;;;2.80;;
1178;SDS011;578;48.408;10.004;2022-10-29T14:51:55;8.53;;;3.30;;
1178;SDS011;578;48.408;10.004;2022-10-29T14:54:25;7.43;;;3.60;;
1178;SDS011;578;48.408;10.004;2022-10-29T14:56:56;6.47;;;3.37;;
1178;SDS011;578;48.408;10.004;2022-10-29T14:59:25;11.33;;;3.40;;
1178;SDS011;578;48.408;10.004;2022-10-29T15:01:53;5.33;;;3.03;;
1178;SDS011;578;48.408;10.004;2022-10-29T15:04:23;14.40;;;7.27;;
1178;SDS011;578;48.408;10.004;2022-10-29T15:06:52;10.13;;;4.70;;
1178;SDS011;578;48.408;10.004;2022-10-29T15:09:38;6.50;;;3.80;;
1178;SDS011;578;48.408;10.004;2022-10-29T15:12:06;6.83;;;3.87;;
1178;SDS011;578;48.408;10.004;2022-10-29T15:14:45;9.10;;;4.20;;
1178;SDS011;578;48.408;10.004;2022-10-29T15:17:15;11.47;;;4.40;;
1178;SDS011;578;48.408;10.004;2022-10-29T15:19:45;6.13;;;3.57;;
1178;SDS011;578;48.408;10.004;2022-10-29T15:22:19;7.50;;;3.43;;
1178;SDS011;578;48.408;10.004;2022-10-29T15:24:50;10.07;;;4.60;;
1178;SDS011;578;48.408;10.004;2022-10-29T15:27:19;8.50;;;3.87;;
1178;SDS011;578;48.408;10.004;2022-10-29T15:29:48;16.73;;;6.90;;
1178;SDS011;578;48.408;10.004;2022-10-29T15:32:16;9.77;;;5.33;;
1178;SDS011;578;48.408;10.004;2022-10-29T15:34:47;7.60;;;4.13;;
1178;SDS011;578;48.408;10.004;2022-10-29T15:37:24;7.20;;;3.83;;
1178;SDS011;578;48.408;10.004;2022-10-29T15:40:05;10.23;;;5.30;;
1178;SDS011;578;48.408;10.004;2022-10-29T15:42:36;7.60;;;4.20;;
1178;SDS011;578;48.408;10.004;2022-10-29T15:45:14;6.43;;;5.20;;
1178;SDS011;578;48.408;10.004;2022-10-29T15:47:44;9.20;;;4.57;;
1178;SDS011;578;48.408;10.004;2022-10-29T15:50:13;7.80;;;4.70;;
1178;SDS011;578;48.408;10.004;2022-10-29T15:52:44;10.23;;;3.90;;
1178;SDS011;578;48.408;10.004;2022-10-29T15:55:18;7.00;;;4.27;;
1178;SDS011;578;48.408;10.004;2022-10-29T15:57:47;10.23;;;4.80;;